sensor_id;sensor_type;location;lat;lon;timestamp;temperature;humidity
18446;DHT22;9352;50.888;4.466;2023-01-24T00:01:12;4.20;99.90
18446;DHT22;9352;50.888;4.466;2023-01-24T00:03:41;4.10;99.90
18446;DHT22;9352;50.888;4.466;2023-01-24T00:06:08;4.20;99.90
18446;DHT22;9352;50.888;4.466;2023-01-24T00:08:35;4.20;99.90
18446;DHT22;9352;50.888;4.466;2023-01-24T00:11:04;4.20;99.90
18446;DHT22;9352;50.888;4.466;2023-01-24T00:13:32;4.20;99.90
18446;DHT22;9352;50.888;4.466;2023-01-24T00:16:07;4.20;99.90
18446;DHT22;9352;50.888;4.466;2023-01-24T00:18:34;4.20;99.90
18446;DHT22;9352;50.888;4.466;2023-01-24T00:21:05;4.20;99.90
18446;DHT22;9352;50.888;4.466;2023-01-24T00:23:34;4.20;99.90
18446;DHT22;9352;50.888;4.466;2023-01-24T00:26:01;4.20;99.90
18446;DHT22;9352;50.888;4.466;2023-01-24T00:28:29;4.20;99.90
18446;DHT22;9352;50.888;4.466;2023-01-24T00:30:56;4.10;99.90
18446;DHT22;9352;50.888;4.466;2023-01-24T00:33:23;4.20;99.90
18446;DHT22;9352;50.888;4.466;2023-01-24T00:35:50;4.20;99.90
18446;DHT22;9352;50.888;4.466;2023-01-24T00:38:19;4.20;99.90
18446;DHT22;9352;50.888;4.466;2023-01-24T00:40:46;4.20;99.90
18446;DHT22;9352;50.888;4.466;2023-01-24T00:43:13;4.20;99.90
18446;DHT22;9352;50.888;4.466;2023-01-24T00:45:40;4.20;99.90
18446;DHT22;9352;50.888;4.466;2023-01-24T00:48:08;4.20;99.90
18446;DHT22;9352;50.888;4.466;2023-01-24T00:50:36;4.20;99.90
18446;DHT22;9352;50.888;4.466;2023-01-24T00:53:03;4.20;99.90
18446;DHT22;9352;50.888;4.466;2023-01-24T00:55:31;4.20;99.90
18446;DHT22;9352;50.888;4.466;2023-01-24T00:57:58;4.10;99.90
18446;DHT22;9352;50.888;4.466;2023-01-24T01:00:25;4.10;99.90
18446;DHT22;9352;50.888;4.466;2023-01-24T01:02:52;4.10;99.90
18446;DHT22;9352;50.888;4.466;2023-01-24T01:05:19;4.10;99.90
18446;DHT22;9352;50.888;4.466;2023-01-24T01:07:46;4.10;99.90
18446;DHT22;9352;50.888;4.466;2023-01-24T01:10:13;4.10;99.90
18446;DHT22;9352;50.888;4.466;2023-01-24T01:12:41;4.10;99.90
18446;DHT22;9352;50.888;4.466;2023-01-24T01:15:09;4.20;99.90
18446;DHT22;9352;50.888;4.466;2023-01-24T01:17:36;4.20;99.90
18446;DHT22;9352;50.888;4.466;2023-01-24T01:20:04;4.20;99.90
18446;DHT22;9352;50.888;4.466;2023-01-24T01:22:33;4.30;99.90
18446;DHT22;9352;50.888;4.466;2023-01-24T01:25:00;4.20;99.90
18446;DHT22;9352;50.888;4.466;2023-01-24T01:27:27;4.20;99.90
18446;DHT22;9352;50.888;4.466;2023-01-24T01:29:55;4.20;99.90
18446;DHT22;9352;50.888;4.466;2023-01-24T01:32:22;4.10;99.90
18446;DHT22;9352;50.888;4.466;2023-01-24T01:34:49;4.10;99.90
18446;DHT22;9352;50.888;4.466;2023-01-24T01:37:16;4.10;99.90
18446;DHT22;9352;50.888;4.466;2023-01-24T01:39:43;4.20;99.90
18446;DHT22;9352;50.888;4.466;2023-01-24T01:42:10;4.10;99.90
18446;DHT22;9352;50.888;4.466;2023-01-24T01:44:40;4.10;99.90
18446;DHT22;9352;50.888;4.466;2023-01-24T01:47:23;4.10;99.90
18446;DHT22;9352;50.888;4.466;2023-01-24T01:49:57;4.10;99.90
18446;DHT22;9352;50.888;4.466;2023-01-24T01:52:27;4.10;99.90
18446;DHT22;9352;50.888;4.466;2023-01-24T01:54:59;4.10;99.90
18446;DHT22;9352;50.888;4.466;2023-01-24T01:57:30;4.00;99.90
18446;DHT22;9352;50.888;4.466;2023-01-24T02:00:03;4.10;99.90
18446;DHT22;9352;50.888;4.466;2023-01-24T02:02:32;4.10;99.90
18446;DHT22;9352;50.888;4.466;2023-01-24T02:05:03;4.10;99.90
18446;DHT22;9352;50.888;4.466;2023-01-24T02:07:34;4.10;99.90
18446;DHT22;9352;50.888;4.466;2023-01-24T02:10:04;4.10;99.90
18446;DHT22;9352;50.888;4.466;2023-01-24T02:12:37;4.10;99.90
18446;DHT22;9352;50.888;4.466;2023-01-24T02:15:07;4.10;99.90
18446;DHT22;9352;50.888;4.466;2023-01-24T02:17:53;4.10;99.90
18446;DHT22;9352;50.888;4.466;2023-01-24T02:20:34;4.10;99.90
18446;DHT22;9352;50.888;4.466;2023-01-24T02:23:15;4.00;99.90
18446;DHT22;9352;50.888;4.466;2023-01-24T02:25:50;4.10;99.90
18446;DHT22;9352;50.888;4.466;2023-01-24T02:28:21;4.10;99.90
18446;DHT22;9352;50.888;4.466;2023-01-24T02:30:47;4.10;99.90
18446;DHT22;9352;50.888;4.466;2023-01-24T02:33:17;4.10;99.90
18446;DHT22;9352;50.888;4.466;2023-01-24T02:35:45;4.10;99.90
18446;DHT22;9352;50.888;4.466;2023-01-24T02:38:17;4.10;99.90
18446;DHT22;9352;50.888;4.466;2023-01-24T02:40:46;4.10;99.90
18446;DHT22;9352;50.888;4.466;2023-01-24T02:43:14;4.10;99.90
18446;DHT22;9352;50.888;4.466;2023-01-24T02:45:46;4.10;99.90
18446;DHT22;9352;50.888;4.466;2023-01-24T02:48:13;4.10;99.90
18446;DHT22;9352;50.888;4.466;2023-01-24T02:50:41;4.00;99.90
18446;DHT22;9352;50.888;4.466;2023-01-24T02:53:25;4.00;99.90
18446;DHT22;9352;50.888;4.466;2023-01-24T02:55:59;4.00;99.90
18446;DHT22;9352;50.888;4.466;2023-01-24T02:58:43;4.00;99.90
18446;DHT22;9352;50.888;4.466;2023-01-24T03:01:13;4.00;99.90
18446;DHT22;9352;50.888;4.466;2023-01-24T03:03:41;4.00;99.90
18446;DHT22;9352;50.888;4.466;2023-01-24T03:06:08;4.00;99.90
18446;DHT22;9352;50.888;4.466;2023-01-24T03:08:36;4.00;99.90
18446;DHT22;9352;50.888;4.466;2023-01-24T03:11:04;4.00;99.90
18446;DHT22;9352;50.888;4.466;2023-01-24T03:13:32;4.00;99.90
18446;DHT22;9352;50.888;4.466;2023-01-24T03:16:18;4.00;99.90
18446;DHT22;9352;50.888;4.466;2023-01-24T03:19:03;4.00;99.90
18446;DHT22;9352;50.888;4.466;2023-01-24T03:21:47;4.00;99.90
18446;DHT22;9352;50.888;4.466;2023-01-24T03:24:32;4.00;99.90
18446;DHT22;9352;50.888;4.466;2023-01-24T03:27:16;4.00;99.90
18446;DHT22;9352;50.888;4.466;2023-01-24T03:30:02;4.00;99.90
18446;DHT22;9352;50.888;4.466;2023-01-24T03:32:48;4.00;99.90
18446;DHT22;9352;50.888;4.466;2023-01-24T03:35:32;4.00;99.90
18446;DHT22;9352;50.888;4.466;2023-01-24T03:38:02;4.00;99.90
18446;DHT22;9352;50.888;4.466;2023-01-24T03:40:50;4.00;99.90
18446;DHT22;9352;50.888;4.466;2023-01-24T03:43:17;4.00;99.90
18446;DHT22;9352;50.888;4.466;2023-01-24T03:45:44;4.00;99.90
18446;DHT22;9352;50.888;4.466;2023-01-24T03:48:13;4.00;99.90
18446;DHT22;9352;50.888;4.466;2023-01-24T03:50:41;4.10;99.90
18446;DHT22;9352;50.888;4.466;2023-01-24T03:53:27;4.10;99.90
18446;DHT22;9352;50.888;4.466;2023-01-24T03:55:56;4.10;99.90
18446;DHT22;9352;50.888;4.466;2023-01-24T03:58:23;4.00;99.90
18446;DHT22;9352;50.888;4.466;2023-01-24T04:00:52;4.00;99.90
18446;DHT22;9352;50.888;4.466;2023-01-24T04:03:21;4.10;99.90
18446;DHT22;9352;50.888;4.466;2023-01-24T04:05:49;4.00;99.90
18446;DHT22;9352;50.888;4.466;2023-01-24T04:08:17;4.00;99.90
18446;DHT22;9352;50.888;4.466;2023-01-24T04:10:44;4.00;99.90
18446;DHT22;9352;50.888;4.466;2023-01-24T04:13:11;4.00;99.90
18446;DHT22;9352;50.888;4.466;2023-01-24T04:15:39;4.00;99.90
18446;DHT22;9352;50.888;4.466;2023-01-24T04:18:06;4.00;99.90
18446;DHT22;9352;50.888;4.466;2023-01-24T04:20:36;4.00;99.90
18446;DHT22;9352;50.888;4.466;2023-01-24T04:23:04;4.00;99.90
18446;DHT22;9352;50.888;4.466;2023-01-24T04:25:32;4.00;99.90
18446;DHT22;9352;50.888;4.466;2023-01-24T04:27:59;4.00;99.90
18446;DHT22;9352;50.888;4.466;2023-01-24T04:30:26;4.00;99.90
18446;DHT22;9352;50.888;4.466;2023-01-24T04:32:53;4.00;99.90
18446;DHT22;9352;50.888;4.466;2023-01-24T04:35:22;4.10;99.90
18446;DHT22;9352;50.888;4.466;2023-01-24T04:37:50;4.00;99.90
18446;DHT22;9352;50.888;4.466;2023-01-24T04:40:17;4.00;99.90
18446;DHT22;9352;50.888;4.466;2023-01-24T04:42:44;4.00;99.90
18446;DHT22;9352;50.888;4.466;2023-01-24T04:45:11;4.00;99.90
18446;DHT22;9352;50.888;4.466;2023-01-24T04:47:38;4.00;99.90
18446;DHT22;9352;50.888;4.466;2023-01-24T04:50:06;4.00;99.90
18446;DHT22;9352;50.888;4.466;2023-01-24T04:52:34;4.00;99.90
18446;DHT22;9352;50.888;4.466;2023-01-24T04:55:02;4.00;99.90
18446;DHT22;9352;50.888;4.466;2023-01-24T04:57:29;4.00;99.90
18446;DHT22;9352;50.888;4.466;2023-01-24T04:59:56;4.00;99.90
18446;DHT22;9352;50.888;4.466;2023-01-24T05:02:23;4.00;99.90
18446;DHT22;9352;50.888;4.466;2023-01-24T05:04:50;4.00;99.90
18446;DHT22;9352;50.888;4.466;2023-01-24T05:07:17;4.00;99.90
18446;DHT22;9352;50.888;4.466;2023-01-24T05:09:44;4.00;99.90
18446;DHT22;9352;50.888;4.466;2023-01-24T05:12:12;3.90;99.90
18446;DHT22;9352;50.888;4.466;2023-01-24T05:14:39;3.90;99.90
18446;DHT22;9352;50.888;4.466;2023-01-24T05:17:06;3.90;99.90
18446;DHT22;9352;50.888;4.466;2023-01-24T05:19:33;3.90;99.90
18446;DHT22;9352;50.888;4.466;2023-01-24T05:22:00;3.90;99.90
18446;DHT22;9352;50.888;4.466;2023-01-24T05:24:27;3.90;99.90
18446;DHT22;9352;50.888;4.466;2023-01-24T05:26:54;3.90;99.90
18446;DHT22;9352;50.888;4.466;2023-01-24T05:29:22;4.00;99.90
18446;DHT22;9352;50.888;4.466;2023-01-24T05:31:49;3.90;99.90
18446;DHT22;9352;50.888;4.466;2023-01-24T05:34:16;4.00;99.90
18446;DHT22;9352;50.888;4.466;2023-01-24T05:36:43;4.00;99.90
18446;DHT22;9352;50.888;4.466;2023-01-24T05:39:10;4.00;99.90
18446;DHT22;9352;50.888;4.466;2023-01-24T05:41:37;4.00;99.90
18446;DHT22;9352;50.888;4.466;2023-01-24T05:44:04;3.90;99.90
18446;DHT22;9352;50.888;4.466;2023-01-24T05:46:32;3.90;99.90
18446;DHT22;9352;50.888;4.466;2023-01-24T05:48:59;3.90;99.90
18446;DHT22;9352;50.888;4.466;2023-01-24T05:51:26;3.90;99.90
18446;DHT22;9352;50.888;4.466;2023-01-24T05:53:53;3.90;99.90
18446;DHT22;9352;50.888;4.466;2023-01-24T05:56:20;3.90;99.90
18446;DHT22;9352;50.888;4.466;2023-01-24T05:58:47;3.80;99.90
18446;DHT22;9352;50.888;4.466;2023-01-24T06:01:16;3.90;99.90
18446;DHT22;9352;50.888;4.466;2023-01-24T06:03:45;3.90;99.90
18446;DHT22;9352;50.888;4.466;2023-01-24T06:06:14;3.80;99.90
18446;DHT22;9352;50.888;4.466;2023-01-24T06:08:42;3.90;99.90
18446;DHT22;9352;50.888;4.466;2023-01-24T06:11:11;3.90;99.90
18446;DHT22;9352;50.888;4.466;2023-01-24T06:13:39;3.90;99.90
18446;DHT22;9352;50.888;4.466;2023-01-24T06:16:08;3.90;99.90
18446;DHT22;9352;50.888;4.466;2023-01-24T06:18:36;4.00;99.90
18446;DHT22;9352;50.888;4.466;2023-01-24T06:21:16;4.00;99.90
18446;DHT22;9352;50.888;4.466;2023-01-24T06:23:45;3.90;99.90
18446;DHT22;9352;50.888;4.466;2023-01-24T06:26:12;3.90;99.90
18446;DHT22;9352;50.888;4.466;2023-01-24T06:28:40;3.90;99.90
18446;DHT22;9352;50.888;4.466;2023-01-24T06:31:18;3.90;99.90
18446;DHT22;9352;50.888;4.466;2023-01-24T06:34:00;3.90;99.90
18446;DHT22;9352;50.888;4.466;2023-01-24T06:36:40;3.90;99.90
18446;DHT22;9352;50.888;4.466;2023-01-24T06:39:12;3.90;99.90
18446;DHT22;9352;50.888;4.466;2023-01-24T06:41:43;3.90;99.90
18446;DHT22;9352;50.888;4.466;2023-01-24T06:44:10;3.90;99.90
18446;DHT22;9352;50.888;4.466;2023-01-24T06:46:38;3.90;99.90
18446;DHT22;9352;50.888;4.466;2023-01-24T06:49:05;3.90;99.90
18446;DHT22;9352;50.888;4.466;2023-01-24T06:51:33;3.80;99.90
18446;DHT22;9352;50.888;4.466;2023-01-24T06:54:00;3.80;99.90
18446;DHT22;9352;50.888;4.466;2023-01-24T06:56:27;3.80;99.90
18446;DHT22;9352;50.888;4.466;2023-01-24T06:58:54;3.80;99.90
18446;DHT22;9352;50.888;4.466;2023-01-24T07:01:21;3.80;99.90
18446;DHT22;9352;50.888;4.466;2023-01-24T07:03:48;3.80;99.90
18446;DHT22;9352;50.888;4.466;2023-01-24T07:06:15;3.80;99.90
18446;DHT22;9352;50.888;4.466;2023-01-24T07:08:43;3.90;99.90
18446;DHT22;9352;50.888;4.466;2023-01-24T07:11:10;3.80;99.90
18446;DHT22;9352;50.888;4.466;2023-01-24T07:13:37;3.90;99.90
18446;DHT22;9352;50.888;4.466;2023-01-24T07:16:04;3.80;99.90
18446;DHT22;9352;50.888;4.466;2023-01-24T07:18:32;3.80;99.90
18446;DHT22;9352;50.888;4.466;2023-01-24T07:20:59;3.80;99.90
18446;DHT22;9352;50.888;4.466;2023-01-24T07:23:27;3.80;99.90
18446;DHT22;9352;50.888;4.466;2023-01-24T07:25:57;3.80;99.90
18446;DHT22;9352;50.888;4.466;2023-01-24T07:28:24;3.90;99.90
18446;DHT22;9352;50.888;4.466;2023-01-24T07:30:52;3.80;99.90
18446;DHT22;9352;50.888;4.466;2023-01-24T07:33:20;3.80;99.90
18446;DHT22;9352;50.888;4.466;2023-01-24T07:35:47;3.80;99.90
18446;DHT22;9352;50.888;4.466;2023-01-24T07:38:13;3.80;99.90
18446;DHT22;9352;50.888;4.466;2023-01-24T07:40:40;3.80;99.90
18446;DHT22;9352;50.888;4.466;2023-01-24T07:43:12;3.80;99.90
18446;DHT22;9352;50.888;4.466;2023-01-24T07:45:44;3.80;99.90
18446;DHT22;9352;50.888;4.466;2023-01-24T07:48:11;3.80;99.90
18446;DHT22;9352;50.888;4.466;2023-01-24T07:50:38;3.80;99.90
18446;DHT22;9352;50.888;4.466;2023-01-24T07:53:05;3.80;99.90
18446;DHT22;9352;50.888;4.466;2023-01-24T07:55:32;3.80;99.90
18446;DHT22;9352;50.888;4.466;2023-01-24T07:58:00;3.80;99.90
18446;DHT22;9352;50.888;4.466;2023-01-24T08:00:29;3.80;99.90
18446;DHT22;9352;50.888;4.466;2023-01-24T08:02:56;3.80;99.90
18446;DHT22;9352;50.888;4.466;2023-01-24T08:05:23;3.80;99.90
18446;DHT22;9352;50.888;4.466;2023-01-24T08:07:50;3.90;99.90
18446;DHT22;9352;50.888;4.466;2023-01-24T08:10:19;3.90;99.90
18446;DHT22;9352;50.888;4.466;2023-01-24T08:12:47;3.90;99.90
18446;DHT22;9352;50.888;4.466;2023-01-24T08:15:14;3.90;99.90
18446;DHT22;9352;50.888;4.466;2023-01-24T08:17:42;3.90;99.90
18446;DHT22;9352;50.888;4.466;2023-01-24T08:20:10;3.90;99.90
18446;DHT22;9352;50.888;4.466;2023-01-24T08:22:38;3.80;99.90
18446;DHT22;9352;50.888;4.466;2023-01-24T08:25:06;3.80;99.90
18446;DHT22;9352;50.888;4.466;2023-01-24T08:27:33;3.80;99.90
18446;DHT22;9352;50.888;4.466;2023-01-24T08:30:02;3.80;99.90
18446;DHT22;9352;50.888;4.466;2023-01-24T08:32:29;3.80;99.90
18446;DHT22;9352;50.888;4.466;2023-01-24T08:34:58;3.80;99.90
18446;DHT22;9352;50.888;4.466;2023-01-24T08:37:25;3.90;99.90
18446;DHT22;9352;50.888;4.466;2023-01-24T08:39:52;3.90;99.90
18446;DHT22;9352;50.888;4.466;2023-01-24T08:42:22;3.90;99.90
18446;DHT22;9352;50.888;4.466;2023-01-24T08:44:49;3.90;99.90
18446;DHT22;9352;50.888;4.466;2023-01-24T08:47:16;4.00;99.90
18446;DHT22;9352;50.888;4.466;2023-01-24T08:49:43;4.00;99.90
18446;DHT22;9352;50.888;4.466;2023-01-24T08:52:12;4.00;99.90
18446;DHT22;9352;50.888;4.466;2023-01-24T08:54:38;4.00;99.90
18446;DHT22;9352;50.888;4.466;2023-01-24T08:57:06;4.00;99.90
18446;DHT22;9352;50.888;4.466;2023-01-24T08:59:33;4.00;99.90
18446;DHT22;9352;50.888;4.466;2023-01-24T09:02:00;4.00;99.90
18446;DHT22;9352;50.888;4.466;2023-01-24T09:04:27;4.10;99.90
18446;DHT22;9352;50.888;4.466;2023-01-24T09:06:54;4.00;99.90
18446;DHT22;9352;50.888;4.466;2023-01-24T09:09:22;4.10;99.90
18446;DHT22;9352;50.888;4.466;2023-01-24T09:11:51;4.10;99.90
18446;DHT22;9352;50.888;4.466;2023-01-24T09:14:18;4.10;99.90
18446;DHT22;9352;50.888;4.466;2023-01-24T09:16:45;4.00;99.90
18446;DHT22;9352;50.888;4.466;2023-01-24T09:19:12;4.10;99.90
18446;DHT22;9352;50.888;4.466;2023-01-24T09:21:39;4.10;99.90
18446;DHT22;9352;50.888;4.466;2023-01-24T09:24:06;4.10;99.90
18446;DHT22;9352;50.888;4.466;2023-01-24T09:26:35;4.10;99.90
18446;DHT22;9352;50.888;4.466;2023-01-24T09:29:02;4.10;99.90
18446;DHT22;9352;50.888;4.466;2023-01-24T09:31:29;4.10;99.90
18446;DHT22;9352;50.888;4.466;2023-01-24T09:33:55;4.10;99.90
18446;DHT22;9352;50.888;4.466;2023-01-24T09:36:22;4.10;99.90
18446;DHT22;9352;50.888;4.466;2023-01-24T09:38:49;4.10;99.90
18446;DHT22;9352;50.888;4.466;2023-01-24T09:41:22;4.10;99.90
18446;DHT22;9352;50.888;4.466;2023-01-24T09:43:57;4.20;99.90
18446;DHT22;9352;50.888;4.466;2023-01-24T09:46:32;4.20;99.90
18446;DHT22;9352;50.888;4.466;2023-01-24T09:49:08;4.20;99.90
18446;DHT22;9352;50.888;4.466;2023-01-24T09:51:42;4.30;99.90
18446;DHT22;9352;50.888;4.466;2023-01-24T09:54:17;4.30;99.90
18446;DHT22;9352;50.888;4.466;2023-01-24T09:56:48;4.20;99.90
18446;DHT22;9352;50.888;4.466;2023-01-24T09:59:20;4.30;99.90
18446;DHT22;9352;50.888;4.466;2023-01-24T10:01:49;4.30;99.90
18446;DHT22;9352;50.888;4.466;2023-01-24T10:04:19;4.30;99.90
18446;DHT22;9352;50.888;4.466;2023-01-24T10:07:08;4.40;99.90
18446;DHT22;9352;50.888;4.466;2023-01-24T10:09:51;4.40;99.90
18446;DHT22;9352;50.888;4.466;2023-01-24T10:12:34;4.30;99.90
18446;DHT22;9352;50.888;4.466;2023-01-24T10:15:15;4.30;99.90
18446;DHT22;9352;50.888;4.466;2023-01-24T10:20:46;4.30;99.90
18446;DHT22;9352;50.888;4.466;2023-01-24T10:23:17;4.40;99.90
18446;DHT22;9352;50.888;4.466;2023-01-24T10:25:54;4.40;99.90
18446;DHT22;9352;50.888;4.466;2023-01-24T10:28:26;4.50;99.90
18446;DHT22;9352;50.888;4.466;2023-01-24T10:31:09;4.50;99.90
18446;DHT22;9352;50.888;4.466;2023-01-24T10:33:42;4.40;99.90
18446;DHT22;9352;50.888;4.466;2023-01-24T10:36:13;4.50;99.90
18446;DHT22;9352;50.888;4.466;2023-01-24T10:38:42;4.50;99.90
18446;DHT22;9352;50.888;4.466;2023-01-24T10:41:15;4.50;99.90
18446;DHT22;9352;50.888;4.466;2023-01-24T10:43:45;4.50;99.90
18446;DHT22;9352;50.888;4.466;2023-01-24T10:46:36;4.50;99.90
18446;DHT22;9352;50.888;4.466;2023-01-24T10:49:11;4.50;99.90
18446;DHT22;9352;50.888;4.466;2023-01-24T10:51:42;4.50;99.90
18446;DHT22;9352;50.888;4.466;2023-01-24T10:54:20;4.50;99.90
18446;DHT22;9352;50.888;4.466;2023-01-24T10:56:48;4.50;99.90
18446;DHT22;9352;50.888;4.466;2023-01-24T10:59:15;4.60;99.90
18446;DHT22;9352;50.888;4.466;2023-01-24T11:01:46;4.70;99.90
18446;DHT22;9352;50.888;4.466;2023-01-24T11:04:18;4.70;99.90
18446;DHT22;9352;50.888;4.466;2023-01-24T11:06:46;4.70;99.90
18446;DHT22;9352;50.888;4.466;2023-01-24T11:09:16;4.70;99.90
18446;DHT22;9352;50.888;4.466;2023-01-24T11:11:46;4.70;99.90
18446;DHT22;9352;50.888;4.466;2023-01-24T11:14:19;4.90;99.90
18446;DHT22;9352;50.888;4.466;2023-01-24T11:16:50;4.80;99.90
18446;DHT22;9352;50.888;4.466;2023-01-24T11:19:25;4.80;99.90
18446;DHT22;9352;50.888;4.466;2023-01-24T11:21:54;4.70;99.90
18446;DHT22;9352;50.888;4.466;2023-01-24T11:24:22;4.80;99.90
18446;DHT22;9352;50.888;4.466;2023-01-24T11:26:57;4.70;99.90
18446;DHT22;9352;50.888;4.466;2023-01-24T11:29:27;4.80;99.90
18446;DHT22;9352;50.888;4.466;2023-01-24T11:31:58;4.80;99.90
18446;DHT22;9352;50.888;4.466;2023-01-24T11:34:45;4.80;99.90
18446;DHT22;9352;50.888;4.466;2023-01-24T11:37:45;4.70;99.90
18446;DHT22;9352;50.888;4.466;2023-01-24T11:40:24;4.80;99.90
18446;DHT22;9352;50.888;4.466;2023-01-24T11:43:03;4.80;99.90
18446;DHT22;9352;50.888;4.466;2023-01-24T11:45:59;4.80;99.90
18446;DHT22;9352;50.888;4.466;2023-01-24T11:48:35;4.90;99.90
18446;DHT22;9352;50.888;4.466;2023-01-24T11:51:09;4.80;99.90
18446;DHT22;9352;50.888;4.466;2023-01-24T11:53:57;4.80;99.90
18446;DHT22;9352;50.888;4.466;2023-01-24T11:56:34;4.90;99.90
18446;DHT22;9352;50.888;4.466;2023-01-24T11:59:22;4.70;99.90
18446;DHT22;9352;50.888;4.466;2023-01-24T12:01:56;4.70;99.90
18446;DHT22;9352;50.888;4.466;2023-01-24T12:04:49;4.70;99.90
18446;DHT22;9352;50.888;4.466;2023-01-24T12:07:26;4.70;99.90
18446;DHT22;9352;50.888;4.466;2023-01-24T12:10:00;4.80;99.90
18446;DHT22;9352;50.888;4.466;2023-01-24T12:12:35;4.90;99.90
18446;DHT22;9352;50.888;4.466;2023-01-24T12:15:38;4.80;99.90
18446;DHT22;9352;50.888;4.466;2023-01-24T12:18:22;4.70;99.90
18446;DHT22;9352;50.888;4.466;2023-01-24T12:20:57;4.70;99.90
18446;DHT22;9352;50.888;4.466;2023-01-24T12:23:31;4.80;99.90
18446;DHT22;9352;50.888;4.466;2023-01-24T12:26:03;4.90;99.90
18446;DHT22;9352;50.888;4.466;2023-01-24T12:28:35;4.90;99.90
18446;DHT22;9352;50.888;4.466;2023-01-24T12:31:04;4.90;99.90
18446;DHT22;9352;50.888;4.466;2023-01-24T12:33:36;4.90;99.90
18446;DHT22;9352;50.888;4.466;2023-01-24T12:36:12;4.90;99.90
18446;DHT22;9352;50.888;4.466;2023-01-24T12:38:44;4.90;99.90
18446;DHT22;9352;50.888;4.466;2023-01-24T12:41:18;4.90;99.90
18446;DHT22;9352;50.888;4.466;2023-01-24T12:43:54;4.90;99.90
18446;DHT22;9352;50.888;4.466;2023-01-24T12:46:29;5.00;99.90
18446;DHT22;9352;50.888;4.466;2023-01-24T12:49:06;4.90;99.90
18446;DHT22;9352;50.888;4.466;2023-01-24T12:51:41;4.90;99.90
18446;DHT22;9352;50.888;4.466;2023-01-24T12:54:13;4.90;99.90
18446;DHT22;9352;50.888;4.466;2023-01-24T12:56:48;4.90;99.90
18446;DHT22;9352;50.888;4.466;2023-01-24T12:59:22;4.90;99.90
18446;DHT22;9352;50.888;4.466;2023-01-24T13:02:18;5.00;99.90
18446;DHT22;9352;50.888;4.466;2023-01-24T13:04:50;5.00;99.90
18446;DHT22;9352;50.888;4.466;2023-01-24T13:07:33;5.00;99.90
18446;DHT22;9352;50.888;4.466;2023-01-24T13:10:09;4.90;99.90
18446;DHT22;9352;50.888;4.466;2023-01-24T13:12:41;4.90;99.90
18446;DHT22;9352;50.888;4.466;2023-01-24T13:15:15;4.90;99.90
18446;DHT22;9352;50.888;4.466;2023-01-24T13:18:11;4.90;99.90
18446;DHT22;9352;50.888;4.466;2023-01-24T13:21:04;4.90;99.90
18446;DHT22;9352;50.888;4.466;2023-01-24T13:23:51;5.00;99.90
18446;DHT22;9352;50.888;4.466;2023-01-24T13:26:57;4.90;99.90
18446;DHT22;9352;50.888;4.466;2023-01-24T13:29:37;4.90;99.90
18446;DHT22;9352;50.888;4.466;2023-01-24T13:32:10;4.90;99.90
18446;DHT22;9352;50.888;4.466;2023-01-24T13:34:41;4.80;99.90
18446;DHT22;9352;50.888;4.466;2023-01-24T13:37:16;4.90;99.90
18446;DHT22;9352;50.888;4.466;2023-01-24T13:39:46;4.80;99.90
18446;DHT22;9352;50.888;4.466;2023-01-24T13:42:21;4.80;99.90
18446;DHT22;9352;50.888;4.466;2023-01-24T13:44:48;4.90;99.90
18446;DHT22;9352;50.888;4.466;2023-01-24T13:47:27;4.80;99.90
18446;DHT22;9352;50.888;4.466;2023-01-24T13:50:17;4.80;99.90
18446;DHT22;9352;50.888;4.466;2023-01-24T13:52:49;4.80;99.90
18446;DHT22;9352;50.888;4.466;2023-01-24T13:58:31;4.90;99.90
18446;DHT22;9352;50.888;4.466;2023-01-24T14:01:01;5.00;99.90
18446;DHT22;9352;50.888;4.466;2023-01-24T14:03:31;4.90;99.90
18446;DHT22;9352;50.888;4.466;2023-01-24T14:06:10;4.90;99.90
18446;DHT22;9352;50.888;4.466;2023-01-24T14:08:41;4.80;99.90
18446;DHT22;9352;50.888;4.466;2023-01-24T14:11:23;4.80;99.90
18446;DHT22;9352;50.888;4.466;2023-01-24T14:16:58;4.80;99.90
18446;DHT22;9352;50.888;4.466;2023-01-24T14:19:28;4.80;99.90
18446;DHT22;9352;50.888;4.466;2023-01-24T14:21:59;4.80;99.90
18446;DHT22;9352;50.888;4.466;2023-01-24T14:24:32;4.80;99.90
18446;DHT22;9352;50.888;4.466;2023-01-24T14:27:01;4.80;99.90
18446;DHT22;9352;50.888;4.466;2023-01-24T14:29:38;4.80;99.90
18446;DHT22;9352;50.888;4.466;2023-01-24T14:32:17;4.80;99.90
18446;DHT22;9352;50.888;4.466;2023-01-24T14:34:50;4.80;99.90
18446;DHT22;9352;50.888;4.466;2023-01-24T14:37:20;4.70;99.90
18446;DHT22;9352;50.888;4.466;2023-01-24T14:39:47;4.80;99.90
18446;DHT22;9352;50.888;4.466;2023-01-24T14:42:15;4.70;99.90
18446;DHT22;9352;50.888;4.466;2023-01-24T14:44:53;4.70;99.90
18446;DHT22;9352;50.888;4.466;2023-01-24T14:47:22;4.70;99.90
18446;DHT22;9352;50.888;4.466;2023-01-24T14:49:50;4.70;99.90
18446;DHT22;9352;50.888;4.466;2023-01-24T14:52:19;4.70;99.90
18446;DHT22;9352;50.888;4.466;2023-01-24T14:54:47;4.70;99.90
18446;DHT22;9352;50.888;4.466;2023-01-24T14:57:23;4.70;99.90
18446;DHT22;9352;50.888;4.466;2023-01-24T15:00:05;4.70;99.90
18446;DHT22;9352;50.888;4.466;2023-01-24T15:02:34;4.70;99.90
18446;DHT22;9352;50.888;4.466;2023-01-24T15:05:01;4.60;99.90
18446;DHT22;9352;50.888;4.466;2023-01-24T15:07:28;4.60;99.90
18446;DHT22;9352;50.888;4.466;2023-01-24T15:09:55;4.60;99.90
18446;DHT22;9352;50.888;4.466;2023-01-24T15:12:25;4.70;99.90
18446;DHT22;9352;50.888;4.466;2023-01-24T15:14:55;4.60;99.90
18446;DHT22;9352;50.888;4.466;2023-01-24T15:17:26;4.50;99.90
18446;DHT22;9352;50.888;4.466;2023-01-24T15:19:56;4.40;99.90
18446;DHT22;9352;50.888;4.466;2023-01-24T15:22:26;4.40;99.90
18446;DHT22;9352;50.888;4.466;2023-01-24T15:24:54;4.40;99.90
18446;DHT22;9352;50.888;4.466;2023-01-24T15:27:39;4.40;99.90
18446;DHT22;9352;50.888;4.466;2023-01-24T15:30:16;4.40;99.90
18446;DHT22;9352;50.888;4.466;2023-01-24T15:32:45;4.30;99.90
18446;DHT22;9352;50.888;4.466;2023-01-24T15:35:32;4.30;99.90
18446;DHT22;9352;50.888;4.466;2023-01-24T15:38:16;4.30;99.90
18446;DHT22;9352;50.888;4.466;2023-01-24T15:40:49;4.20;99.90
18446;DHT22;9352;50.888;4.466;2023-01-24T15:43:20;4.20;99.90
18446;DHT22;9352;50.888;4.466;2023-01-24T15:46:06;4.20;99.90
18446;DHT22;9352;50.888;4.466;2023-01-24T15:49:01;4.20;99.90
18446;DHT22;9352;50.888;4.466;2023-01-24T15:51:31;4.20;99.90
18446;DHT22;9352;50.888;4.466;2023-01-24T15:53:58;4.10;99.90
18446;DHT22;9352;50.888;4.466;2023-01-24T15:56:28;4.10;99.90
18446;DHT22;9352;50.888;4.466;2023-01-24T15:58:55;4.10;99.90
18446;DHT22;9352;50.888;4.466;2023-01-24T16:01:27;4.10;99.90
18446;DHT22;9352;50.888;4.466;2023-01-24T16:03:59;4.10;99.90
18446;DHT22;9352;50.888;4.466;2023-01-24T16:06:34;4.10;99.90
18446;DHT22;9352;50.888;4.466;2023-01-24T16:09:01;4.00;99.90
18446;DHT22;9352;50.888;4.466;2023-01-24T16:11:28;4.00;99.90
18446;DHT22;9352;50.888;4.466;2023-01-24T16:13:55;4.00;99.90
18446;DHT22;9352;50.888;4.466;2023-01-24T16:16:22;4.10;99.90
18446;DHT22;9352;50.888;4.466;2023-01-24T16:18:49;4.00;99.90
18446;DHT22;9352;50.888;4.466;2023-01-24T16:21:18;4.00;99.90
18446;DHT22;9352;50.888;4.466;2023-01-24T16:23:45;4.00;99.90
18446;DHT22;9352;50.888;4.466;2023-01-24T16:26:20;4.00;99.90
18446;DHT22;9352;50.888;4.466;2023-01-24T16:28:48;3.90;99.90
18446;DHT22;9352;50.888;4.466;2023-01-24T16:31:15;4.00;99.90
18446;DHT22;9352;50.888;4.466;2023-01-24T16:33:43;4.00;99.90
18446;DHT22;9352;50.888;4.466;2023-01-24T16:36:11;4.00;99.90
18446;DHT22;9352;50.888;4.466;2023-01-24T16:38:41;4.00;99.90